Time;durP1;ratioP1;P1;durP2;ratioP2;P2;SDS_P1;SDS_P2;PMS_P1;PMS_P2;Temp;Humidity;BMP_temperature;BMP_pressure;BME280_temperature;BME280_humidity;BME280_pressure;Samples;Min_cycle;Max_cycle;Signal;HPM_P1;HPM_P2
2022/10/02 00:00:03;;;;;;;19.35;2.90;;;13.50;99.90;;;;;;5032767;28;20081;-73
2022/10/02 00:02:53;;;;;;;12.23;2.90;;;13.50;99.90;;;;;;5033141;28;20483;-73
2022/10/02 00:05:37;;;;;;;16.77;3.10;;;13.40;99.90;;;;;;5033420;28;20037;-73
2022/10/02 00:08:12;;;;;;;18.98;2.40;;;13.40;99.90;;;;;;5031320;28;20087;-76
2022/10/02 00:11:07;;;;;;;18.80;3.28;;;13.40;99.90;;;;;;5033001;28;20101;-74
2022/10/02 00:13:54;;;;;;;17.88;2.70;;;13.40;99.90;;;;;;5029904;28;20029;-75
2022/10/02 00:16:36;;;;;;;22.75;3.35;;;13.40;99.90;;;;;;5022838;28;20460;-72
2022/10/02 00:19:02;;;;;;;14.30;3.30;;;13.50;99.90;;;;;;5032737;28;20021;-73
2022/10/02 00:21:46;;;;;;;20.48;3.33;;;13.60;99.90;;;;;;5047657;28;20416;-72
2022/10/02 00:24:16;;;;;;;17.55;4.90;;;13.60;99.90;;;;;;5033150;28;20113;-76
2022/10/02 00:27:19;;;;;;;18.45;3.38;;;13.70;99.90;;;;;;5031378;28;20025;-74
2022/10/02 00:29:51;;;;;;;18.80;3.33;;;13.80;99.90;;;;;;5032676;28;20033;-73
2022/10/02 00:32:20;;;;;;;22.88;3.53;;;13.90;99.90;;;;;;5031267;28;20471;-76
2022/10/02 00:34:58;;;;;;;20.65;3.90;;;13.90;99.90;;;;;;5032276;28;20030;-73
2022/10/02 00:37:52;;;;;;;19.38;3.10;;;14.10;99.90;;;;;;5025695;28;20088;-73
2022/10/02 00:40:33;;;;;;;15.88;2.95;;;14.20;99.90;;;;;;5029302;28;20036;-75
2022/10/02 00:43:49;;;;;;;16.63;3.30;;;14.20;99.90;;;;;;5032167;28;20026;-72
2022/10/02 00:46:39;;;;;;;22.00;3.15;;;14.30;99.90;;;;;;5031231;28;20133;-73
2022/10/02 00:49:10;;;;;;;17.70;4.22;;;14.40;99.90;;;;;;5032764;28;20041;-74
2022/10/02 00:51:59;;;;;;;17.95;3.38;;;14.50;99.90;;;;;;5032628;28;20035;-72
2022/10/02 00:54:52;;;;;;;16.30;3.42;;;14.50;99.90;;;;;;5025418;28;20455;-71
2022/10/02 00:57:47;;;;;;;16.00;2.80;;;14.60;99.90;;;;;;5032445;28;20514;-71
2022/10/02 01:00:16;;;;;;;19.42;2.97;;;14.60;99.90;;;;;;5032204;28;20514;-71
2022/10/02 01:02:58;;;;;;;16.10;2.90;;;14.60;99.90;;;;;;5030906;28;20045;-72
2022/10/02 01:05:24;;;;;;;21.77;3.30;;;14.60;99.90;;;;;;5031975;28;20096;-71
2022/10/02 01:07:52;;;;;;;21.80;3.38;;;14.60;99.90;;;;;;5032406;28;20080;-72
2022/10/02 01:10:21;;;;;;;17.40;2.85;;;14.70;99.90;;;;;;5031502;28;20047;-72
2022/10/02 01:12:48;;;;;;;21.77;3.65;;;14.70;99.90;;;;;;5031651;28;20045;-71
2022/10/02 01:15:17;;;;;;;22.77;4.28;;;14.70;99.90;;;;;;5032233;28;20073;-71
2022/10/02 01:17:44;;;;;;;15.57;3.80;;;14.70;99.90;;;;;;5031214;28;20360;-73
2022/10/02 01:20:30;;;;;;;19.77;3.80;;;14.70;99.90;;;;;;5034570;28;20040;-74
2022/10/02 01:23:14;;;;;;;16.92;4.20;;;14.70;99.90;;;;;;5034904;28;20025;-76
2022/10/02 01:25:39;;;;;;;19.80;3.95;;;14.70;99.90;;;;;;5035504;28;20087;-71
2022/10/02 01:28:06;;;;;;;19.48;3.42;;;14.70;99.90;;;;;;5035886;28;20029;-74
2022/10/02 01:30:34;;;;;;;23.02;3.88;;;14.80;99.90;;;;;;5035502;28;20022;-72
2022/10/02 01:33:02;;;;;;;17.92;4.57;;;14.80;99.90;;;;;;5035715;28;20079;-71
2022/10/02 01:35:30;;;;;;;23.50;4.47;;;14.80;99.90;;;;;;5035963;28;20069;-74
2022/10/02 01:37:57;;;;;;;23.05;4.45;;;14.90;99.90;;;;;;5035918;28;20032;-72
2022/10/02 01:40:25;;;;;;;17.30;3.10;;;14.90;99.90;;;;;;5034076;28;20072;-73
2022/10/02 01:42:54;;;;;;;23.05;4.05;;;14.90;99.90;;;;;;5035381;28;20014;-75
2022/10/02 01:45:29;;;;;;;15.57;3.60;;;14.90;99.90;;;;;;5035256;28;20028;-72
2022/10/02 01:48:07;;;;;;;17.48;3.30;;;14.90;99.90;;;;;;5016175;28;20030;-73
2022/10/02 01:50:50;;;;;;;25.02;3.78;;;14.90;99.90;;;;;;5015132;28;20026;-73
2022/10/02 01:53:28;;;;;;;20.33;2.35;;;14.90;99.90;;;;;;5016181;28;20080;-74
2022/10/02 01:56:11;;;;;;;16.60;3.20;;;14.80;99.90;;;;;;5021559;28;20033;-73
2022/10/02 01:58:39;;;;;;;;;;;14.80;99.90;;;;;;5035948;28;20061;-72
2022/10/02 02:01:24;;;;;;;18.40;3.13;;;14.80;99.90;;;;;;5035605;28;19906;-71
2022/10/02 02:04:12;;;;;;;13.27;2.65;;;14.80;99.90;;;;;;5033736;28;20112;-72
2022/10/02 02:06:54;;;;;;;12.90;2.35;;;14.80;99.90;;;;;;5034813;28;20048;-71
2022/10/02 02:09:37;;;;;;;18.60;2.25;;;14.80;99.90;;;;;;5024492;28;20025;-73
2022/10/02 02:12:14;;;;;;;17.52;3.03;;;14.80;99.90;;;;;;5031474;28;20403;-71
2022/10/02 02:14:50;;;;;;;12.88;2.30;;;14.70;99.90;;;;;;5034980;28;20025;-73
2022/10/02 02:17:25;;;;;;;11.80;2.67;;;14.70;99.90;;;;;;5035315;28;20022;-73
2022/10/02 02:19:59;;;;;;;18.48;2.90;;;14.70;99.90;;;;;;5034901;28;20399;-74
2022/10/02 02:22:32;;;;;;;16.70;2.75;;;14.70;99.90;;;;;;5035038;28;20037;-73
2022/10/02 02:25:08;;;;;;;19.20;2.95;;;14.70;99.90;;;;;;5032991;28;20065;-72
2022/10/02 02:27:39;;;;;;;17.77;2.63;;;14.70;99.90;;;;;;5033419;28;20013;-72
2022/10/02 02:30:10;;;;;;;12.77;2.58;;;14.70;99.90;;;;;;5024088;28;20116;-72
2022/10/02 02:32:42;;;;;;;15.13;2.90;;;14.70;99.90;;;;;;5034920;28;20068;-75
2022/10/02 02:35:26;;;;;;;15.40;2.75;;;14.60;99.90;;;;;;5035270;28;20037;-73
2022/10/02 02:37:57;;;;;;;24.10;3.70;;;14.70;99.90;;;;;;5039737;28;20037;-73
2022/10/02 02:40:27;;;;;;;14.60;3.58;;;14.60;99.90;;;;;;5043042;28;20072;-72
2022/10/02 02:43:00;;;;;;;15.77;3.35;;;14.70;99.90;;;;;;5038982;28;20036;-72
2022/10/02 02:45:35;;;;;;;15.70;2.67;;;14.70;99.90;;;;;;5038372;28;20036;-72
2022/10/02 02:48:07;;;;;;;15.45;2.60;;;14.70;99.90;;;;;;5041853;28;20029;-71
2022/10/02 02:50:47;;;;;;;18.90;2.90;;;14.60;99.90;;;;;;5042595;28;20044;-71
2022/10/02 02:53:23;;;;;;;16.42;2.85;;;14.60;99.90;;;;;;5041947;28;20379;-71
2022/10/02 02:55:58;;;;;;;16.85;2.67;;;14.60;99.90;;;;;;5044585;28;20428;-71
2022/10/02 02:58:27;;;;;;;22.08;3.58;;;14.60;99.90;;;;;;5042627;28;20108;-71
2022/10/02 03:00:53;;;;;;;19.17;2.70;;;14.60;99.90;;;;;;5035968;28;20041;-72
2022/10/02 03:03:18;;;;;;;17.30;3.25;;;14.50;99.90;;;;;;5039129;28;20363;-71
2022/10/02 03:05:52;;;;;;;15.88;2.83;;;14.50;99.90;;;;;;5043572;28;20071;-74
2022/10/02 03:08:26;;;;;;;11.73;2.30;;;14.50;99.90;;;;;;5040951;28;20032;-72
2022/10/02 03:11:26;;;;;;;15.32;2.72;;;14.50;99.90;;;;;;5040083;28;20037;-71
2022/10/02 03:14:19;;;;;;;13.13;2.15;;;14.40;99.90;;;;;;5042846;28;20135;-71
2022/10/02 03:17:07;;;;;;;13.52;2.13;;;14.40;99.90;;;;;;5042659;28;20059;-71
2022/10/02 03:19:44;;;;;;;17.38;2.50;;;14.40;99.90;;;;;;5037991;28;20025;-72
2022/10/02 03:22:35;;;;;;;12.43;2.60;;;14.30;99.90;;;;;;5041847;28;20066;-72
2022/10/02 03:25:32;;;;;;;20.77;2.83;;;14.30;99.90;;;;;;5043676;28;20037;-70
2022/10/02 03:28:08;;;;;;;14.63;2.92;;;14.30;99.90;;;;;;5032342;28;20094;-71
2022/10/02 03:30:36;;;;;;;16.35;2.42;;;14.30;99.90;;;;;;5040713;28;20387;-71
2022/10/02 03:33:04;;;;;;;17.42;3.10;;;14.30;99.90;;;;;;5045329;28;20032;-71
2022/10/02 03:35:31;;;;;;;14.00;2.17;;;14.40;99.90;;;;;;5037504;28;20055;-70
2022/10/02 03:38:05;;;;;;;13.93;2.42;;;14.40;99.90;;;;;;5038314;28;20441;-71
2022/10/02 03:40:30;;;;;;;16.73;2.60;;;14.40;99.90;;;;;;5037247;28;20043;-71
2022/10/02 03:42:57;;;;;;;20.75;3.13;;;14.50;99.90;;;;;;5038943;28;20100;-71
2022/10/02 03:45:24;;;;;;;18.17;2.45;;;14.50;99.90;;;;;;5040097;28;20056;-71
2022/10/02 03:47:49;;;;;;;16.10;3.28;;;14.60;99.90;;;;;;5039856;28;20025;-71
2022/10/02 03:50:15;;;;;;;18.00;2.72;;;14.60;99.90;;;;;;5040994;28;20029;-71
2022/10/02 03:52:41;;;;;;;9.55;2.13;;;14.60;99.90;;;;;;5044509;28;20025;-71
2022/10/02 03:55:27;;;;;;;15.85;2.80;;;14.60;99.90;;;;;;5038114;28;20113;-71
2022/10/02 03:57:53;;;;;;;15.02;2.08;;;14.70;99.90;;;;;;5042322;28;20532;-71
2022/10/02 04:00:29;;;;;;;14.70;2.45;;;14.80;99.90;;;;;;5038038;28;20025;-71
2022/10/02 04:03:20;;;;;;;20.40;2.70;;;14.80;99.90;;;;;;5044055;28;20117;-71
2022/10/02 04:06:01;;;;;;;19.25;2.75;;;14.90;99.90;;;;;;5034398;28;20040;-71
2022/10/02 04:08:29;;;;;;;15.55;3.15;;;15.00;99.90;;;;;;5040802;28;20037;-71
2022/10/02 04:11:04;;;;;;;14.35;2.30;;;15.00;99.90;;;;;;5039445;28;20045;-73
2022/10/02 04:13:45;;;;;;;8.40;2.30;;;15.10;99.90;;;;;;5041374;28;20029;-73
2022/10/02 04:16:50;;;;;;;9.77;2.38;;;15.10;99.90;;;;;;5042153;28;20049;-73
2022/10/02 04:19:22;;;;;;;15.73;2.55;;;15.10;99.90;;;;;;5027041;28;20037;-73
2022/10/02 04:21:50;;;;;;;18.37;2.50;;;15.10;99.90;;;;;;5043327;28;20033;-73
2022/10/02 04:24:37;;;;;;;12.77;2.55;;;15.10;99.90;;;;;;5040979;28;20103;-74
2022/10/02 04:27:30;;;;;;;13.88;2.35;;;15.10;99.90;;;;;;5040286;28;20065;-73
2022/10/02 04:30:01;;;;;;;18.77;2.92;;;15.10;99.90;;;;;;5039025;28;20033;-73
2022/10/02 04:32:30;;;;;;;15.32;2.72;;;15.20;99.90;;;;;;5040211;28;20065;-73
2022/10/02 04:34:56;;;;;;;33.83;4.30;;;15.20;99.90;;;;;;5041754;28;20053;-72
2022/10/02 04:37:38;;;;;;;16.05;2.67;;;15.10;99.90;;;;;;5037101;28;20021;-72
2022/10/02 04:40:10;;;;;;;;;;;15.10;99.90;;;;;;5041054;28;20375;-72
2022/10/02 04:42:36;;;;;;;18.42;2.78;;;15.00;99.90;;;;;;5041795;28;19908;-72
2022/10/02 04:45:25;;;;;;;21.00;3.35;;;14.90;99.90;;;;;;5039266;28;20044;-72
2022/10/02 04:47:53;;;;;;;16.48;4.25;;;14.80;99.90;;;;;;5038954;28;20032;-72
2022/10/02 04:50:36;;;;;;;18.38;3.58;;;14.80;99.90;;;;;;5040940;28;20034;-72
2022/10/02 04:53:42;;;;;;;16.13;3.42;;;14.80;99.90;;;;;;5041546;28;20033;-72
2022/10/02 04:56:16;;;;;;;14.23;3.22;;;14.80;99.90;;;;;;5039652;28;20127;-72
2022/10/02 04:58:53;;;;;;;25.27;4.15;;;14.80;99.90;;;;;;5040316;28;20056;-72
2022/10/02 05:01:57;;;;;;;14.30;3.53;;;14.80;99.90;;;;;;5036907;28;20038;-72
2022/10/02 05:04:44;;;;;;;21.90;4.25;;;14.80;99.90;;;;;;5041194;28;20545;-72
2022/10/02 05:07:48;;;;;;;15.15;3.80;;;14.90;99.90;;;;;;5040928;28;20017;-72
2022/10/02 05:10:51;;;;;;;19.20;5.25;;;14.90;99.90;;;;;;5037870;28;20025;-72
2022/10/02 05:13:51;;;;;;;22.80;5.03;;;14.90;99.90;;;;;;5023986;28;20085;-72
2022/10/02 05:16:19;;;;;;;18.50;5.95;;;14.90;99.90;;;;;;5039551;28;20119;-72
2022/10/02 05:19:22;;;;;;;19.15;3.70;;;14.90;99.90;;;;;;5035081;28;20096;-71
2022/10/02 05:22:13;;;;;;;18.70;3.75;;;14.90;99.90;;;;;;5035130;28;20033;-71
2022/10/02 05:25:05;;;;;;;17.30;4.00;;;14.90;99.90;;;;;;5034316;28;20029;-71
2022/10/02 05:27:40;;;;;;;17.23;3.50;;;14.90;99.90;;;;;;5042778;28;20056;-71
2022/10/02 05:30:12;;;;;;;22.75;3.90;;;14.90;99.90;;;;;;5036038;28;20113;-72
2022/10/02 05:32:52;;;;;;;15.07;3.28;;;14.90;99.90;;;;;;5038829;28;20025;-70
2022/10/02 05:35:27;;;;;;;20.35;3.63;;;14.90;99.90;;;;;;5036573;28;20509;-71
2022/10/02 05:38:23;;;;;;;16.77;4.25;;;14.90;99.90;;;;;;5035976;28;20025;-71
2022/10/02 05:41:16;;;;;;;20.33;4.10;;;14.90;99.90;;;;;;5037563;28;20021;-71
2022/10/02 05:43:49;;;;;;;17.70;2.60;;;14.80;99.90;;;;;;5038373;28;20128;-71
2022/10/02 05:46:28;;;;;;;18.52;3.72;;;14.80;99.90;;;;;;5039610;28;20033;-71
2022/10/02 05:49:13;;;;;;;18.05;3.13;;;14.70;99.90;;;;;;5038633;28;20022;-71
2022/10/02 05:52:03;;;;;;;13.40;3.47;;;14.70;99.90;;;;;;5041637;28;20041;-72
2022/10/02 05:54:48;;;;;;;14.75;3.50;;;14.70;99.90;;;;;;5040308;28;20033;-71
2022/10/02 05:57:31;;;;;;;22.13;6.47;;;14.70;99.90;;;;;;5031616;28;20033;-72
2022/10/02 06:00:24;;;;;;;22.65;3.85;;;14.70;99.90;;;;;;5037252;28;20053;-71
2022/10/02 06:03:12;;;;;;;34.75;11.55;;;14.70;99.90;;;;;;5037674;28;20040;-72
2022/10/02 06:05:58;;;;;;;28.50;8.60;;;14.70;99.90;;;;;;5042046;28;20029;-71
2022/10/02 06:08:39;;;;;;;13.95;2.97;;;14.70;99.90;;;;;;5044311;28;20033;-71
2022/10/02 06:11:27;;;;;;;23.60;5.33;;;14.70;99.90;;;;;;5041513;28;20561;-71
2022/10/02 06:14:06;;;;;;;16.77;3.83;;;14.70;99.90;;;;;;5041070;28;20039;-72
2022/10/02 06:16:40;;;;;;;21.63;4.05;;;14.70;99.90;;;;;;5041954;28;21198;-72
2022/10/02 06:19:36;;;;;;;25.90;7.70;;;14.80;99.90;;;;;;5040387;28;20482;-73
2022/10/02 06:22:20;;;;;;;17.42;5.03;;;14.80;99.90;;;;;;5040956;28;20041;-73
2022/10/02 06:25:03;;;;;;;18.50;3.10;;;14.80;99.90;;;;;;5045277;28;20032;-73
2022/10/02 06:27:37;;;;;;;20.90;5.22;;;14.90;99.90;;;;;;5039176;28;20029;-72
2022/10/02 06:30:13;;;;;;;24.00;4.68;;;14.90;99.90;;;;;;5046495;28;20024;-71
2022/10/02 06:32:50;;;;;;;23.40;5.05;;;15.00;99.90;;;;;;5041593;28;20433;-74
2022/10/02 06:35:27;;;;;;;17.95;4.15;;;15.10;99.90;;;;;;5044192;28;20029;-73
2022/10/02 06:38:16;;;;;;;10.00;2.63;;;15.10;99.90;;;;;;5038575;28;20404;-73
2022/10/02 06:41:10;;;;;;;19.55;2.90;;;15.20;99.90;;;;;;5040174;28;20035;-72
2022/10/02 06:44:12;;;;;;;25.70;5.50;;;15.20;99.90;;;;;;5041608;28;20025;-72
2022/10/02 06:47:02;;;;;;;17.42;3.72;;;15.30;99.90;;;;;;5056101;28;20037;-71
2022/10/02 06:50:22;;;;;;;17.08;4.32;;;15.40;99.90;;;;;;5040541;28;20061;-71
2022/10/02 06:53:12;;;;;;;18.25;3.30;;;15.50;99.90;;;;;;5000046;28;20030;-71
2022/10/02 06:55:51;;;;;;;22.88;4.30;;;15.60;99.90;;;;;;5036952;28;20521;-71
2022/10/02 06:58:36;;;;;;;23.63;3.88;;;15.60;99.90;;;;;;5038263;28;20048;-71
2022/10/02 07:01:19;;;;;;;17.98;3.00;;;15.80;99.90;;;;;;5042697;28;20063;-71
2022/10/02 07:03:45;;;;;;;19.33;2.80;;;15.90;99.90;;;;;;5042076;28;20382;-71
2022/10/02 07:06:32;;;;;;;16.83;3.03;;;15.90;99.90;;;;;;5042976;28;20063;-71
2022/10/02 07:09:35;;;;;;;15.05;2.75;;;16.00;99.90;;;;;;5040266;28;20032;-71
2022/10/02 07:12:34;;;;;;;19.58;3.47;;;16.10;99.90;;;;;;5042975;28;20061;-71
2022/10/02 07:15:19;;;;;;;14.05;2.70;;;16.20;99.90;;;;;;5039015;28;20036;-71
2022/10/02 07:18:07;;;;;;;14.75;2.80;;;16.20;99.90;;;;;;5042641;28;20038;-71
2022/10/02 07:20:49;;;;;;;19.40;2.88;;;16.30;99.90;;;;;;5039327;28;20041;-71
2022/10/02 07:23:28;;;;;;;13.73;2.83;;;16.40;99.90;;;;;;5037591;28;20047;-73
2022/10/02 07:26:38;;;;;;;12.68;2.80;;;16.50;99.90;;;;;;5033092;28;20025;-72
2022/10/02 07:29:31;;;;;;;10.07;2.40;;;16.60;99.90;;;;;;5011167;28;20061;-70
2022/10/02 07:32:28;;;;;;;20.88;3.05;;;16.70;99.90;;;;;;5033549;28;20029;-71
2022/10/02 07:35:18;;;;;;;17.33;2.75;;;16.70;99.90;;;;;;5033553;28;20029;-72
2022/10/02 07:38:15;;;;;;;19.40;2.70;;;16.80;99.90;;;;;;5020057;28;20108;-70
2022/10/02 07:40:58;;;;;;;10.23;2.47;;;16.90;99.90;;;;;;5033468;28;20025;-73
2022/10/02 07:43:50;;;;;;;17.08;3.35;;;16.90;99.90;;;;;;5017257;28;20025;-74
2022/10/02 07:46:34;;;;;;;13.27;2.53;;;17.00;99.90;;;;;;5024071;28;20080;-71
2022/10/02 07:49:38;;;;;;;13.88;3.22;;;17.10;99.90;;;;;;5032694;28;20533;-70
2022/10/02 07:52:31;;;;;;;15.98;2.88;;;17.10;99.90;;;;;;5033403;28;20105;-73
2022/10/02 07:55:08;;;;;;;12.90;2.17;;;17.30;99.90;;;;;;5029724;28;20047;-73
2022/10/02 07:57:48;;;;;;;14.77;2.28;;;17.30;99.90;;;;;;5017198;28;20025;-73
2022/10/02 08:00:16;;;;;;;15.82;2.60;;;17.40;99.90;;;;;;5033325;28;20083;-71
2022/10/02 08:03:05;;;;;;;15.90;2.55;;;17.50;99.90;;;;;;5033283;28;20037;-70
2022/10/02 08:05:52;;;;;;;14.70;2.92;;;17.60;99.90;;;;;;5027048;28;20025;-71
2022/10/02 08:08:24;;;;;;;10.40;3.05;;;17.60;99.90;;;;;;5023835;28;20029;-70
2022/10/02 08:11:15;;;;;;;16.38;2.58;;;17.70;99.90;;;;;;5032179;28;20045;-70
2022/10/02 08:13:54;;;;;;;14.70;2.85;;;17.80;99.90;;;;;;5030390;28;20852;-70
2022/10/02 08:16:25;;;;;;;12.57;2.78;;;18.10;99.90;;;;;;5032797;28;20044;-70
2022/10/02 08:19:04;;;;;;;19.05;3.22;;;18.50;99.90;;;;;;5032978;28;20026;-70
2022/10/02 08:21:34;;;;;;;13.05;3.03;;;18.80;99.90;;;;;;5022792;28;20036;-70
2022/10/02 08:24:26;;;;;;;17.25;3.03;;;19.00;99.90;;;;;;5032276;28;20388;-70
2022/10/02 08:26:56;;;;;;;17.65;2.97;;;19.20;99.90;;;;;;5032754;28;20498;-70
2022/10/02 08:29:30;;;;;;;13.00;2.97;;;19.60;99.90;;;;;;5016162;28;20065;-70
2022/10/02 08:31:55;;;;;;;13.88;2.92;;;19.80;99.90;;;;;;5037341;28;20033;-70
2022/10/02 08:34:23;;;;;;;15.65;2.83;;;20.00;99.90;;;;;;5042429;28;20036;-70
2022/10/02 08:37:27;;;;;;;13.68;2.15;;;20.00;99.90;;;;;;5037747;28;20475;-70
2022/10/02 08:40:14;;;;;;;14.20;2.40;;;19.90;99.90;;;;;;5038170;28;20030;-70
2022/10/02 08:42:44;;;;;;;14.68;2.75;;;19.90;99.90;;;;;;5032686;28;20033;-70
2022/10/02 08:45:38;;;;;;;16.30;3.92;;;20.20;99.90;;;;;;5052611;28;20028;-70
2022/10/02 08:48:22;;;;;;;12.50;2.45;;;20.60;99.90;;;;;;5028458;28;20430;-70
2022/10/02 08:50:47;;;;;;;14.68;2.50;;;21.00;99.90;;;;;;5031654;28;20029;-70
2022/10/02 08:53:40;;;;;;;11.45;2.38;;;21.50;99.90;;;;;;5032178;28;20044;-70
2022/10/02 08:56:26;;;;;;;13.07;2.25;;;21.70;99.90;;;;;;5032539;28;20060;-71
2022/10/02 08:59:06;;;;;;;12.77;2.85;;;22.10;99.90;;;;;;5042226;28;20510;-71
2022/10/02 09:01:59;;;;;;;13.80;2.58;;;22.00;99.90;;;;;;5052184;28;20036;-71
2022/10/02 09:04:43;;;;;;;12.85;2.50;;;21.90;99.90;;;;;;5051069;28;20029;-71
2022/10/02 09:07:31;;;;;;;11.63;2.72;;;21.60;99.90;;;;;;5040005;28;20061;-72
2022/10/02 09:10:32;;;;;;;13.20;1.92;;;21.30;99.90;;;;;;5032323;28;20029;-70
2022/10/02 09:13:38;;;;;;;10.77;2.15;;;21.40;99.90;;;;;;5030960;28;20038;-72
2022/10/02 09:16:25;;;;;;;14.35;3.40;;;21.10;99.90;;;;;;5030749;28;20406;-70
2022/10/02 09:18:59;;;;;;;11.23;2.20;;;20.70;99.90;;;;;;5032035;28;20116;-71
2022/10/02 09:21:40;;;;;;;15.68;2.90;;;20.40;99.90;;;;;;5032030;28;20073;-72
2022/10/02 09:24:42;;;;;;;17.70;2.70;;;20.40;99.90;;;;;;5031986;28;20033;-72
2022/10/02 09:27:29;;;;;;;14.70;2.60;;;20.40;99.90;;;;;;5032087;28;20525;-71
2022/10/02 09:30:14;;;;;;;13.68;2.10;;;20.30;99.90;;;;;;5032244;28;20021;-74
2022/10/02 09:33:30;;;;;;;9.75;2.08;;;20.20;99.90;;;;;;5031736;28;20514;-71
2022/10/02 09:36:35;;;;;;;13.35;2.50;;;20.10;99.90;;;;;;5027604;28;20053;-72
2022/10/02 09:39:50;;;;;;;12.68;2.45;;;19.80;99.90;;;;;;5001451;28;20037;-72
2022/10/02 09:42:27;;;;;;;14.55;2.28;;;19.60;99.90;;;;;;5011312;28;20172;-71
2022/10/02 09:45:18;;;;;;;16.50;2.90;;;19.60;99.90;;;;;;5033951;28;20049;-71
2022/10/02 09:48:09;;;;;;;16.65;2.63;;;19.70;99.90;;;;;;5030691;28;20045;-71
2022/10/02 09:51:13;;;;;;;12.10;2.40;;;19.90;99.90;;;;;;5031838;28;20494;-70
2022/10/02 09:54:08;;;;;;;10.15;2.50;;;20.00;99.90;;;;;;5024029;28;20037;-71
2022/10/02 09:56:37;;;;;;;16.63;2.40;;;20.20;99.90;;;;;;5035557;28;20033;-72
2022/10/02 09:59:19;;;;;;;12.20;2.35;;;20.30;99.90;;;;;;5035906;28;20137;-73
2022/10/02 10:02:08;;;;;;;13.55;2.50;;;20.40;99.90;;;;;;5033086;28;20139;-71
2022/10/02 10:05:11;;;;;;;14.25;2.53;;;20.40;99.90;;;;;;5027621;28;20033;-71
2022/10/02 10:08:03;;;;;;;15.50;2.50;;;20.50;99.90;;;;;;5035181;28;20021;-71
2022/10/02 10:10:54;;;;;;;10.98;2.40;;;20.60;99.90;;;;;;5035082;28;20029;-71
2022/10/02 10:14:03;;;;;;;11.23;2.40;;;20.80;99.90;;;;;;5035093;28;20462;-71
2022/10/02 10:16:53;;;;;;;13.07;2.30;;;20.90;99.90;;;;;;5035226;28;20467;-71
2022/10/02 10:19:36;;;;;;;14.40;2.25;;;20.90;99.50;;;;;;5035055;28;20061;-70
2022/10/02 10:22:37;;;;;;;15.50;2.38;;;21.10;99.90;;;;;;5020686;28;20475;-70
2022/10/02 10:25:27;;;;;;;13.00;2.42;;;21.50;99.90;;;;;;5029959;28;20037;-71
2022/10/02 10:27:55;;;;;;;10.57;2.10;;;21.80;98.70;;;;;;5034561;28;20021;-71
2022/10/02 10:30:27;;;;;;;11.88;2.30;;;22.00;98.90;;;;;;5034605;28;20447;-71
2022/10/02 10:33:18;;;;;;;13.68;2.70;;;22.10;97.90;;;;;;5034868;28;20071;-70
2022/10/02 10:36:04;;;;;;;11.60;2.35;;;22.00;97.90;;;;;;5038856;28;20048;-70
2022/10/02 10:38:59;;;;;;;13.63;2.00;;;22.00;98.20;;;;;;5042879;28;20040;-70
2022/10/02 10:41:35;;;;;;;15.90;2.80;;;22.00;98.10;;;;;;4983168;28;20065;-70
2022/10/02 10:44:09;;;;;;;15.82;2.40;;;22.10;97.20;;;;;;5042548;28;20124;-69
2022/10/02 10:47:02;;;;;;;11.70;2.70;;;22.20;97.10;;;;;;5042345;28;20055;-72
2022/10/02 10:49:37;;;;;;;12.85;2.67;;;22.60;97.10;;;;;;5045259;28;20447;-71
2022/10/02 10:52:24;;;;;;;13.70;3.00;;;23.00;96.90;;;;;;5043972;28;20038;-71
2022/10/02 10:55:05;;;;;;;11.98;2.25;;;23.70;96.20;;;;;;5039698;28;20029;-71
2022/10/02 10:57:44;;;;;;;12.10;2.58;;;24.40;95.10;;;;;;5042955;28;20037;-71
2022/10/02 11:00:43;;;;;;;16.65;3.28;;;24.70;93.70;;;;;;5054414;28;20025;-71
2022/10/02 11:03:32;;;;;;;13.38;2.88;;;25.00;93.10;;;;;;5014488;28;20038;-71
2022/10/02 11:06:36;;;;;;;14.80;3.55;;;25.50;92.10;;;;;;5013459;28;20026;-72
2022/10/02 11:09:18;;;;;;;15.32;4.05;;;25.80;91.50;;;;;;5014888;28;20514;-72
2022/10/02 11:12:01;;;;;;;;;;;25.90;90.00;;;;;;5014644;28;20057;-70
2022/10/02 11:15:11;;;;;;;12.13;3.50;;;25.60;90.20;;;;;;5031911;28;20389;-72
2022/10/02 11:18:13;;;;;;;16.02;4.10;;;25.40;90.70;;;;;;5024932;28;20541;-72
2022/10/02 11:21:03;;;;;;;14.82;3.38;;;25.40;91.30;;;;;;5037455;28;20025;-71
2022/10/02 11:23:35;;;;;;;20.00;6.20;;;25.40;90.30;;;;;;5027424;28;20111;-71
2022/10/02 11:26:09;;;;;;;11.13;2.97;;;25.60;90.50;;;;;;5035711;28;20029;-72
2022/10/02 11:28:55;;;;;;;13.55;4.07;;;26.30;90.00;;;;;;5031081;28;20033;-71
2022/10/02 11:31:39;;;;;;;14.10;4.32;;;26.80;88.40;;;;;;5027157;28;20112;-72
2022/10/02 11:34:32;;;;;;;10.85;2.42;;;27.20;88.80;;;;;;5042701;28;20035;-70
2022/10/02 11:37:30;;;;;;;20.65;7.03;;;27.50;86.80;;;;;;5043235;28;20041;-70
2022/10/02 11:40:12;;;;;;;15.32;3.67;;;27.90;87.30;;;;;;5040623;28;20029;-70
2022/10/02 11:42:56;;;;;;;;;;;27.70;87.10;;;;;;5039200;28;20387;-69
2022/10/02 11:45:28;;;;;;;16.02;5.57;;;27.70;86.70;;;;;;5037365;28;19980;-69
2022/10/02 11:47:59;;;;;;;;;;;27.40;85.70;;;;;;5037111;28;20021;-70
2022/10/02 11:50:36;;;;;;;14.17;4.67;;;27.20;86.20;;;;;;5037190;28;19909;-71
2022/10/02 11:53:21;;;;;;;14.95;3.47;;;26.70;86.10;;;;;;5039578;28;20108;-71
2022/10/02 11:56:05;;;;;;;15.40;4.38;;;26.20;86.50;;;;;;5037454;28;20498;-71
2022/10/02 11:58:42;;;;;;;17.73;3.20;;;26.30;87.00;;;;;;5032198;28;20038;-71
2022/10/02 12:01:26;;;;;;;11.82;2.50;;;26.30;87.50;;;;;;5016603;28;20084;-71
2022/10/02 12:04:18;;;;;;;15.05;3.45;;;25.70;88.00;;;;;;5024679;28;20055;-70
2022/10/02 12:07:03;;;;;;;15.55;2.80;;;25.20;89.20;;;;;;5030330;28;20601;-71
2022/10/02 12:09:41;;;;;;;16.77;2.88;;;24.80;90.30;;;;;;5033016;28;20025;-71
2022/10/02 12:12:28;;;;;;;16.27;4.45;;;24.80;90.10;;;;;;5032241;28;20514;-71
2022/10/02 12:15:27;;;;;;;12.98;3.83;;;24.50;90.30;;;;;;5032482;28;20071;-72
2022/10/02 12:18:22;;;;;;;12.55;3.38;;;24.60;89.90;;;;;;5032660;28;20120;-72
2022/10/02 12:29:39;;;;;;;15.68;4.13;;;26.00;85.00;;;;;;5023942;28;20033;-71
2022/10/02 12:32:11;;;;;;;15.68;3.38;;;25.70;86.40;;;;;;5032050;28;20369;-70
2022/10/02 12:35:20;;;;;;;15.80;3.40;;;25.20;87.40;;;;;;5032441;28;20044;-69
2022/10/02 12:37:59;;;;;;;14.70;3.05;;;24.50;88.80;;;;;;5030754;28;20033;-71
2022/10/02 12:40:34;;;;;;;12.18;3.03;;;24.00;90.00;;;;;;5031940;28;20033;-71
2022/10/02 12:43:18;;;;;;;14.77;3.20;;;23.80;90.40;;;;;;5032006;28;20037;-71
2022/10/02 12:45:58;;;;;;;18.55;2.55;;;23.90;90.40;;;;;;5031861;28;20106;-71
2022/10/02 12:48:45;;;;;;;10.77;2.75;;;24.00;90.20;;;;;;5032176;28;20025;-70
2022/10/02 12:51:23;;;;;;;7.95;2.20;;;23.90;90.00;;;;;;5031940;28;20041;-71
2022/10/02 12:54:09;;;;;;;10.95;2.30;;;23.80;90.00;;;;;;5031706;28;20109;-70
2022/10/02 12:57:03;;;;;;;11.10;2.40;;;23.80;88.20;;;;;;5029661;28;20037;-70
2022/10/02 13:00:04;;;;;;;11.48;2.83;;;23.70;88.50;;;;;;5019354;28;20026;-70
2022/10/02 13:03:08;;;;;;;11.83;2.60;;;23.60;90.20;;;;;;4999325;28;20450;-71
2022/10/02 13:05:39;;;;;;;15.70;2.40;;;23.50;90.40;;;;;;5020294;28;20021;-70
2022/10/02 13:08:59;;;;;;;16.85;3.40;;;23.40;91.20;;;;;;5029913;28;20030;-70
2022/10/02 13:11:30;;;;;;;14.02;2.55;;;23.40;91.20;;;;;;5011927;28;20045;-72
2022/10/02 13:14:26;;;;;;;10.60;2.93;;;23.30;90.40;;;;;;5031781;28;20021;-70
2022/10/02 13:16:53;;;;;;;11.68;3.10;;;23.10;90.30;;;;;;5031266;28;20683;-70
2022/10/02 13:19:22;;;;;;;12.85;2.22;;;23.00;90.70;;;;;;5035050;28;20029;-69
2022/10/02 13:21:59;;;;;;;12.15;2.38;;;22.90;90.80;;;;;;5036011;28;20048;-71
2022/10/02 13:24:38;;;;;;;15.38;2.38;;;22.70;90.90;;;;;;5036435;28;20025;-70
2022/10/02 13:27:26;;;;;;;17.98;3.03;;;22.60;90.80;;;;;;5036110;28;20026;-69
2022/10/02 13:30:02;;;;;;;10.57;1.85;;;22.50;91.20;;;;;;5035992;28;20053;-71
2022/10/02 13:33:04;;;;;;;11.07;2.20;;;22.30;91.10;;;;;;5036002;28;20047;-70
2022/10/02 13:35:37;;;;;;;;;;;22.20;92.00;;;;;;5032640;28;20491;-69
2022/10/02 13:38:15;;;;;;;10.68;2.63;;;22.10;92.10;;;;;;5034666;28;19909;-70
2022/10/02 13:41:13;;;;;;;14.52;2.90;;;22.10;91.90;;;;;;5049377;28;20490;-69
2022/10/02 13:43:50;;;;;;;12.98;2.03;;;21.90;91.90;;;;;;5054530;28;20057;-69
2022/10/02 13:46:18;;;;;;;11.70;2.55;;;21.90;92.20;;;;;;5055993;28;20021;-70
2022/10/02 13:49:17;;;;;;;11.90;2.05;;;21.80;92.40;;;;;;5055497;28;20070;-69
2022/10/02 13:52:09;;;;;;;14.27;2.67;;;21.80;92.90;;;;;;5055595;28;20112;-70
2022/10/02 13:55:09;;;;;;;12.05;2.17;;;21.80;92.50;;;;;;5054692;28;20064;-69
2022/10/02 13:57:54;;;;;;;12.85;2.25;;;21.80;92.90;;;;;;5055510;28;20033;-71
2022/10/02 14:00:26;;;;;;;10.10;2.47;;;21.80;93.20;;;;;;5055720;28;20059;-71
2022/10/02 14:02:58;;;;;;;12.63;2.30;;;21.90;93.30;;;;;;5055471;28;20017;-71
2022/10/02 14:05:43;;;;;;;12.32;1.73;;;21.80;93.20;;;;;;5049837;28;20029;-71